createdAt,value
2018-04-27T00:00:36.134Z,68.52
2018-04-27T00:03:04.422Z,68.35
2018-04-27T00:05:32.572Z,68.24
2018-04-27T00:08:01.161Z,68.30
2018-04-27T00:10:28.706Z,68.41
2018-04-27T00:12:56.891Z,68.50
2018-04-27T00:15:24.403Z,68.49
2018-04-27T00:17:51.927Z,68.46
2018-04-27T00:20:20.027Z,68.56
2018-04-27T00:22:47.612Z,68.48
2018-04-27T00:25:15.129Z,68.51
2018-04-27T00:27:42.682Z,68.64
2018-04-27T00:30:10.207Z,68.46
2018-04-27T00:32:38.601Z,68.60
2018-04-27T00:35:06.179Z,68.47
2018-04-27T00:37:34.170Z,68.71
2018-04-27T00:40:01.688Z,68.40
2018-04-27T00:42:29.317Z,68.54
2018-04-27T00:44:58.634Z,68.52
2018-04-27T00:47:26.799Z,68.62
2018-04-27T00:49:55.287Z,68.48
2018-04-27T00:52:23.638Z,68.56
2018-04-27T00:54:51.163Z,68.77
2018-04-27T00:57:19.116Z,68.87
2018-04-27T00:59:46.626Z,68.87
2018-04-27T01:02:14.199Z,68.89
2018-04-27T01:04:42.495Z,69.08
2018-04-27T01:07:10.290Z,69.05
2018-04-27T01:09:37.883Z,69.17
2018-04-27T01:12:05.737Z,69.35
2018-04-27T01:14:33.963Z,69.47
2018-04-27T01:17:01.499Z,69.65
2018-04-27T01:19:29.867Z,69.81
2018-04-27T01:21:57.395Z,69.89
2018-04-27T01:24:24.915Z,70.02
2018-04-27T01:26:52.476Z,70.12
2018-04-27T01:29:20.032Z,70.29
2018-04-27T01:31:48.776Z,70.29
2018-04-27T01:34:17.189Z,70.15
2018-04-27T01:36:45.301Z,70.07
2018-04-27T01:39:12.823Z,70.06
2018-04-27T01:41:40.395Z,70.02
2018-04-27T01:44:08.595Z,70.09
2018-04-27T01:46:36.122Z,70.29
2018-04-27T01:49:04.669Z,70.21
2018-04-27T01:51:32.302Z,70.12
2018-04-27T01:54:00.854Z,69.94
2018-04-27T01:56:28.898Z,70.09
2018-04-27T01:58:56.434Z,70.06
2018-04-27T02:01:24.444Z,69.85
2018-04-27T02:03:53.041Z,69.84
2018-04-27T02:06:21.175Z,70.01
2018-04-27T02:08:48.694Z,70.01
2018-04-27T02:11:16.797Z,70.11
2018-04-27T02:13:44.715Z,70.62
2018-04-27T02:16:12.259Z,70.91
2018-04-27T02:18:39.779Z,71.06
2018-04-27T02:21:08.462Z,71.40
2018-04-27T02:23:35.979Z,71.75
2018-04-27T02:26:03.511Z,71.97
2018-04-27T02:28:31.068Z,72.31
2018-04-27T02:30:58.723Z,72.65
2018-04-27T02:33:26.961Z,72.96
2018-04-27T02:35:55.250Z,73.13
2018-04-27T02:38:23.263Z,73.19
2018-04-27T02:40:50.783Z,73.39
2018-04-27T02:43:18.321Z,73.73
2018-04-27T02:45:45.879Z,73.52
2018-04-27T02:48:14.356Z,73.53
2018-04-27T02:50:41.931Z,73.18
2018-04-27T02:53:10.268Z,73.36
2018-04-27T02:55:38.676Z,73.62
2018-04-27T02:58:06.198Z,73.28
2018-04-27T03:00:33.745Z,73.66
2018-04-27T03:03:02.159Z,73.71
2018-04-27T03:05:30.463Z,74.12
2018-04-27T03:07:58.123Z,74.23
2018-04-27T03:10:26.194Z,74.52
2018-04-27T03:12:54.772Z,74.71
2018-04-27T03:15:22.302Z,74.84
2018-04-27T03:17:49.835Z,74.63
2018-04-27T03:20:18.599Z,75.07
2018-04-27T03:22:46.120Z,75.05
2018-04-27T03:25:13.659Z,75.15
2018-04-27T03:27:41.223Z,75.51
2018-04-27T03:30:09.463Z,75.64
2018-04-27T03:32:37.794Z,75.63
2018-04-27T03:35:05.725Z,75.85
2018-04-27T03:37:33.243Z,75.78
2018-04-27T03:40:00.793Z,75.98
2018-04-27T03:42:28.846Z,75.81
2018-04-27T03:44:56.370Z,75.83
2018-04-27T03:47:24.425Z,75.58
2018-04-27T03:49:51.991Z,75.39
2018-04-27T03:52:19.520Z,75.18
2018-04-27T03:54:47.714Z,74.96
2018-04-27T03:57:16.333Z,74.76
2018-04-27T03:59:55.741Z,74.50
2018-04-27T04:02:35.142Z,74.17
2018-04-27T04:05:16.182Z,74.32
2018-04-27T04:07:43.711Z,74.29
2018-04-27T04:10:12.030Z,74.21
2018-04-27T04:12:39.871Z,73.96
2018-04-27T04:15:08.095Z,73.60
2018-04-27T04:17:35.640Z,73.12
2018-04-27T04:20:03.563Z,72.66
2018-04-27T04:22:31.823Z,72.39
2018-04-27T04:24:59.394Z,72.09
2018-04-27T04:27:27.502Z,71.89
2018-04-27T04:29:55.033Z,71.99
2018-04-27T04:32:23.466Z,72.02
2018-04-27T04:34:51.700Z,71.87
2018-04-27T04:37:19.222Z,71.99
2018-04-27T04:39:46.739Z,71.96
2018-04-27T04:42:14.295Z,71.99
2018-04-27T04:44:42.678Z,72.06
2018-04-27T04:47:10.950Z,72.22
2018-04-27T04:49:38.566Z,72.31
2018-04-27T04:52:06.108Z,72.26
2018-04-27T04:54:34.330Z,72.13
2018-04-27T04:57:01.886Z,71.82
2018-04-27T04:59:30.434Z,71.38
2018-04-27T05:01:58.661Z,71.13
2018-04-27T05:04:27.035Z,70.98
2018-04-27T05:06:55.282Z,70.85
2018-04-27T05:09:22.809Z,70.66
2018-04-27T05:11:50.927Z,70.22
2018-04-27T05:14:19.274Z,69.96
2018-04-27T05:16:47.382Z,69.55
2018-04-27T05:19:14.941Z,69.41
2018-04-27T05:21:42.467Z,69.08
2018-04-27T05:24:10.132Z,69.33
2018-04-27T05:26:38.922Z,68.76
2018-04-27T05:29:06.495Z,68.45
2018-04-27T05:31:34.036Z,68.13
2018-04-27T05:34:02.123Z,68.13
2018-04-27T05:36:30.465Z,67.89
2018-04-27T05:38:58.234Z,67.52
2018-04-27T05:41:25.863Z,67.00
2018-04-27T05:43:53.474Z,66.62
2018-04-27T05:46:21.047Z,66.39
2018-04-27T05:48:49.451Z,66.28
2018-04-27T05:51:17.430Z,66.20
2018-04-27T05:53:45.594Z,65.98
2018-04-27T05:56:13.154Z,65.60
2018-04-27T05:58:40.690Z,65.77
2018-04-27T06:01:08.413Z,65.45
2018-04-27T06:03:48.394Z,65.27
2018-04-27T06:06:16.662Z,64.87
2018-04-27T06:08:45.043Z,64.54
2018-04-27T06:11:13.388Z,64.58
2018-04-27T06:13:41.418Z,64.34
2018-04-27T06:16:09.779Z,63.73
2018-04-27T06:18:37.339Z,63.56
2018-04-27T06:21:05.364Z,63.77
2018-04-27T06:23:33.727Z,63.10
2018-04-27T06:26:01.315Z,62.89
2018-04-27T06:28:29.030Z,62.98
2018-04-27T06:30:56.644Z,62.94
2018-04-27T06:33:24.182Z,62.65
2018-04-27T06:35:52.191Z,62.50
2018-04-27T06:38:19.746Z,62.53
2018-04-27T06:40:47.342Z,62.75
2018-04-27T06:43:15.044Z,62.08
2018-04-27T06:45:42.612Z,61.60
2018-04-27T06:48:10.759Z,61.31
2018-04-27T06:50:38.607Z,60.44
2018-04-27T06:53:07.097Z,60.16
2018-04-27T06:55:34.674Z,60.06
2018-04-27T06:58:02.243Z,60.34
2018-04-27T07:00:29.928Z,60.39
2018-04-27T07:02:58.654Z,59.62
2018-04-27T07:05:26.846Z,58.62
2018-04-27T07:07:54.424Z,58.99
2018-04-27T07:10:22.765Z,58.57
2018-04-27T07:12:50.360Z,59.02
2018-04-27T07:15:18.467Z,58.79
2018-04-27T07:17:45.993Z,59.16
2018-04-27T07:20:14.896Z,58.69
2018-04-27T07:22:43.159Z,59.24
2018-04-27T07:25:10.711Z,59.41
2018-04-27T07:27:38.511Z,59.31
2018-04-27T07:30:06.130Z,59.53
2018-04-27T07:32:33.668Z,59.77
2018-04-27T07:35:01.967Z,60.46
2018-04-27T07:37:29.663Z,61.01
2018-04-27T07:39:57.991Z,61.90
2018-04-27T07:42:25.584Z,62.58
2018-04-27T07:44:53.143Z,61.66
2018-04-27T07:47:21.654Z,61.97
2018-04-27T07:49:49.234Z,61.36
2018-04-27T07:52:17.527Z,61.25
2018-04-27T07:54:45.587Z,61.38
2018-04-27T07:57:13.697Z,61.25
2018-04-27T07:59:41.324Z,60.08
2018-04-27T08:02:08.953Z,59.22
2018-04-27T08:04:37.305Z,58.20
2018-04-27T08:07:04.911Z,55.61
2018-04-27T08:09:33.318Z,55.64
2018-04-27T08:12:01.577Z,56.14
2018-04-27T08:14:30.602Z,56.00
2018-04-27T08:16:58.464Z,56.08
2018-04-27T08:19:26.678Z,56.29
2018-04-27T08:21:54.238Z,56.56
2018-04-27T08:24:21.825Z,56.72
2018-04-27T08:26:49.400Z,56.69
2018-04-27T08:29:17.524Z,54.63
2018-04-27T08:31:45.132Z,54.06
2018-04-27T08:34:12.693Z,53.93
2018-04-27T08:36:41.209Z,54.20
2018-04-27T08:39:08.734Z,54.98
2018-04-27T08:41:36.258Z,55.15
2018-04-27T08:44:03.826Z,55.67
2018-04-27T08:46:31.379Z,55.25
2018-04-27T08:48:59.826Z,55.09
2018-04-27T08:51:27.461Z,54.23
2018-04-27T08:53:55.991Z,54.77
2018-04-27T08:56:23.530Z,53.44
2018-04-27T08:58:51.658Z,52.93
2018-04-27T09:01:19.184Z,53.23
2018-04-27T09:03:47.444Z,53.88
2018-04-27T09:06:15.729Z,53.92
2018-04-27T09:08:44.187Z,52.86
2018-04-27T09:11:12.380Z,53.29
2018-04-27T09:13:40.660Z,52.61
2018-04-27T09:16:09.279Z,51.84
2018-04-27T09:18:36.802Z,52.53
2018-04-27T09:21:04.370Z,52.11
2018-04-27T09:23:31.982Z,52.53
2018-04-27T09:26:00.494Z,51.47
2018-04-27T09:28:28.834Z,51.08
2018-04-27T09:30:56.394Z,49.96
2018-04-27T09:33:23.926Z,48.96
2018-04-27T09:35:52.152Z,49.04
2018-04-27T09:38:20.515Z,48.16
2018-04-27T09:40:48.096Z,47.32
2018-04-27T09:43:15.707Z,46.83
2018-04-27T09:45:43.346Z,46.87
2018-04-27T09:48:12.012Z,46.45
2018-04-27T09:50:39.658Z,46.08
2018-04-27T09:53:07.997Z,46.37
2018-04-27T09:55:35.531Z,46.99
2018-04-27T09:58:03.186Z,47.15
2018-04-27T10:00:31.522Z,45.88
2018-04-27T10:02:59.465Z,45.16
2018-04-27T10:05:27.640Z,45.12
2018-04-27T10:07:55.196Z,44.62
2018-04-27T10:10:23.150Z,44.84
2018-04-27T10:12:51.248Z,45.39
2018-04-27T10:15:19.424Z,44.54
2018-04-27T10:17:46.975Z,43.84
2018-04-27T10:20:14.503Z,44.08
2018-04-27T10:22:42.097Z,44.55
2018-04-27T10:25:09.799Z,44.39
2018-04-27T10:27:37.501Z,43.90
2018-04-27T10:30:05.076Z,43.40
2018-04-27T10:32:32.645Z,42.63
2018-04-27T10:35:01.124Z,41.97
2018-04-27T10:37:29.262Z,41.28
2018-04-27T10:39:56.818Z,41.36
2018-04-27T10:42:24.389Z,39.51
2018-04-27T10:44:51.928Z,40.17
2018-04-27T10:47:20.496Z,40.10
2018-04-27T10:49:48.078Z,39.47
2018-04-27T10:52:15.650Z,38.80
2018-04-27T10:54:43.726Z,39.61
2018-04-27T10:57:11.515Z,38.46
2018-04-27T10:59:39.287Z,39.04
2018-04-27T11:02:06.884Z,39.90
2018-04-27T11:04:35.440Z,38.75
2018-04-27T11:07:03.703Z,36.98
2018-04-27T11:09:31.929Z,38.01
2018-04-27T11:12:00.360Z,36.59
2018-04-27T11:14:28.655Z,37.56
2018-04-27T11:16:56.505Z,38.29
2018-04-27T11:19:23.846Z,38.27
2018-04-27T11:21:52.329Z,37.93
2018-04-27T11:24:19.910Z,39.00
2018-04-27T11:26:47.559Z,39.03
2018-04-27T11:29:15.114Z,38.69
2018-04-27T11:31:42.639Z,38.16
2018-04-27T11:34:10.174Z,38.24
2018-04-27T11:36:38.539Z,38.44
2018-04-27T11:39:06.831Z,39.05
2018-04-27T11:41:34.362Z,38.88
2018-04-27T11:44:01.909Z,39.35
2018-04-27T11:46:29.679Z,38.58
2018-04-27T11:48:58.087Z,38.65
2018-04-27T11:51:25.673Z,38.58
2018-04-27T11:53:54.506Z,37.83
2018-04-27T11:56:22.062Z,38.43
2018-04-27T11:58:49.621Z,36.93
2018-04-27T12:01:17.268Z,38.23
2018-04-27T12:03:45.617Z,38.63
2018-04-27T12:06:14.287Z,39.14
2018-04-27T12:08:42.829Z,39.74
2018-04-27T12:11:11.231Z,40.32
2018-04-27T12:13:40.510Z,43.69
2018-04-27T12:16:08.383Z,51.44
2018-04-27T12:18:35.992Z,55.54
2018-04-27T12:21:03.586Z,57.65
2018-04-27T12:23:31.128Z,59.76
2018-04-27T12:25:58.707Z,60.69
2018-04-27T12:28:26.327Z,60.89
2018-04-27T12:30:53.890Z,60.13
2018-04-27T12:33:21.406Z,59.74
2018-04-27T12:35:49.736Z,59.57
2018-04-27T12:38:18.092Z,57.59
2018-04-27T12:40:45.698Z,55.57
2018-04-27T12:43:13.921Z,55.97
2018-04-27T12:45:41.475Z,53.33
2018-04-27T12:48:09.751Z,53.21
2018-04-27T12:50:37.402Z,53.38
2018-04-27T12:53:05.411Z,52.03
2018-04-27T12:55:32.990Z,52.04
2018-04-27T12:58:00.581Z,51.86
2018-04-27T13:00:28.487Z,50.90
2018-04-27T13:02:56.023Z,49.41
2018-04-27T13:05:24.499Z,48.51
2018-04-27T13:07:52.685Z,49.43
2018-04-27T13:10:20.938Z,49.31
2018-04-27T13:12:48.521Z,50.85
2018-04-27T13:15:16.967Z,51.10
2018-04-27T13:17:44.538Z,50.53
2018-04-27T13:20:12.096Z,50.34
2018-04-27T13:22:39.662Z,50.56
2018-04-27T13:25:07.346Z,51.76
2018-04-27T13:27:34.895Z,51.21
2018-04-27T13:30:02.474Z,51.36
2018-04-27T13:32:30.002Z,50.49
2018-04-27T13:34:58.121Z,50.68
2018-04-27T13:37:25.675Z,51.30
2018-04-27T13:39:53.239Z,51.50
2018-04-27T13:42:20.859Z,51.81
2018-04-27T13:44:49.219Z,53.23
2018-04-27T13:47:17.610Z,53.21
2018-04-27T13:49:45.143Z,53.03
2018-04-27T13:52:12.730Z,53.05
2018-04-27T13:54:41.295Z,52.75
2018-04-27T13:57:09.029Z,52.39
2018-04-27T13:59:36.626Z,52.65
2018-04-27T14:02:04.278Z,52.38
2018-04-27T14:04:32.668Z,52.10
2018-04-27T14:07:00.863Z,51.44
2018-04-27T14:09:29.628Z,50.83
2018-04-27T14:11:58.115Z,51.09
2018-04-27T14:14:26.427Z,51.41
2018-04-27T14:16:54.002Z,49.72
2018-04-27T14:19:21.571Z,49.98
2018-04-27T14:21:49.207Z,49.83
2018-04-27T14:24:16.742Z,49.61
2018-04-27T14:26:44.512Z,49.64
2018-04-27T14:29:12.194Z,49.72
2018-04-27T14:31:39.719Z,48.70
2018-04-27T14:34:08.281Z,47.87
2018-04-27T14:36:36.518Z,47.58
2018-04-27T14:39:04.118Z,48.28
2018-04-27T14:41:31.671Z,48.17
2018-04-27T14:43:59.354Z,48.39
2018-04-27T14:46:26.910Z,49.12
2018-04-27T14:48:55.203Z,49.56
2018-04-27T14:51:23.977Z,49.92
2018-04-27T14:53:52.123Z,49.96
2018-04-27T14:56:19.687Z,50.96
2018-04-27T14:58:47.251Z,51.00
2018-04-27T15:01:15.337Z,51.84
2018-04-27T15:03:44.233Z,52.78
2018-04-27T15:06:12.356Z,53.79
2018-04-27T15:08:39.887Z,54.01
2018-04-27T15:11:08.115Z,54.25
2018-04-27T15:13:36.487Z,54.77
2018-04-27T15:16:04.238Z,54.86
2018-04-27T15:18:31.775Z,53.93
2018-04-27T15:20:59.506Z,53.21
2018-04-27T15:23:27.065Z,53.22
2018-04-27T15:25:54.606Z,52.56
2018-04-27T15:28:22.482Z,52.82
2018-04-27T15:30:50.060Z,52.66
2018-04-27T15:33:17.606Z,51.34
2018-04-27T15:35:45.759Z,50.50
2018-04-27T15:38:13.884Z,49.61
2018-04-27T15:40:41.472Z,49.43
2018-04-27T15:43:09.090Z,49.26
2018-04-27T15:45:36.648Z,46.90
2018-04-27T15:48:04.594Z,46.12
2018-04-27T15:50:32.180Z,44.34
2018-04-27T15:53:00.415Z,43.48
2018-04-27T15:55:28.821Z,42.20
2018-04-27T15:57:56.363Z,41.79
2018-04-27T16:00:24.409Z,39.03
2018-04-27T16:02:51.992Z,38.85
2018-04-27T16:05:20.070Z,38.25
2018-04-27T16:07:48.127Z,40.50
2018-04-27T16:10:16.426Z,40.69
2018-04-27T16:12:44.076Z,40.45
2018-04-27T16:15:12.368Z,42.02
2018-04-27T16:17:40.105Z,44.05
2018-04-27T16:20:07.665Z,45.39
2018-04-27T16:22:35.290Z,46.39
2018-04-27T16:25:02.850Z,47.12
2018-04-27T16:27:30.420Z,47.91
2018-04-27T16:29:58.140Z,48.52
2018-04-27T16:32:25.721Z,49.18
2018-04-27T16:34:54.216Z,49.09
2018-04-27T16:37:22.441Z,49.26
2018-04-27T16:39:50.742Z,49.07
2018-04-27T16:42:19.154Z,48.74
2018-04-27T16:44:46.718Z,48.94
2018-04-27T16:47:15.243Z,49.16
2018-04-27T16:49:42.899Z,49.23
2018-04-27T16:52:10.443Z,49.26
2018-04-27T16:54:38.799Z,49.12
2018-04-27T16:57:06.886Z,49.92
2018-04-27T16:59:34.458Z,50.57
2018-04-27T17:02:02.018Z,51.16
2018-04-27T17:04:30.408Z,51.37
2018-04-27T17:06:58.782Z,51.63
2018-04-27T17:09:27.061Z,52.16
2018-04-27T17:11:55.455Z,52.68
2018-04-27T17:14:23.602Z,53.16
2018-04-27T17:16:51.190Z,53.38
2018-04-27T17:19:18.857Z,54.18
2018-04-27T17:21:46.428Z,54.45
2018-04-27T17:24:14.000Z,55.67
2018-04-27T17:26:41.571Z,56.33
2018-04-27T17:29:09.341Z,56.63
2018-04-27T17:31:36.898Z,56.51
2018-04-27T17:34:04.471Z,56.59
2018-04-27T17:36:32.854Z,56.91
2018-04-27T17:39:00.428Z,56.01
2018-04-27T17:41:28.137Z,54.30
2018-04-27T17:43:56.186Z,52.27
2018-04-27T17:46:23.767Z,51.27
2018-04-27T17:48:52.014Z,50.39
2018-04-27T17:51:19.664Z,49.37
2018-04-27T17:53:48.010Z,48.28
2018-04-27T17:56:15.544Z,46.25
2018-04-27T17:58:43.099Z,44.14
2018-04-27T18:01:10.664Z,43.97
2018-04-27T18:03:38.867Z,43.66
2018-04-27T18:06:07.069Z,43.55
2018-04-27T18:08:34.635Z,44.12
2018-04-27T18:11:02.696Z,44.08
2018-04-27T18:13:30.889Z,45.42
2018-04-27T18:15:59.143Z,46.27
2018-04-27T18:18:26.703Z,47.25
2018-04-27T18:20:54.319Z,48.14
2018-04-27T18:23:22.335Z,48.92
2018-04-27T18:25:49.908Z,49.63
2018-04-27T18:28:17.584Z,50.32
2018-04-27T18:30:45.219Z,50.92
2018-04-27T18:33:12.822Z,51.48
2018-04-27T18:35:40.996Z,51.84
2018-04-27T18:38:08.613Z,52.17
2018-04-27T18:40:36.194Z,52.83
2018-04-27T18:43:03.855Z,53.12
2018-04-27T18:45:31.430Z,53.58
2018-04-27T18:48:00.157Z,53.95
2018-04-27T18:50:30.608Z,54.04
2018-04-27T18:53:00.318Z,54.74
2018-04-27T18:55:28.746Z,55.09
2018-04-27T18:57:56.375Z,55.45
2018-04-27T19:00:29.343Z,55.68
2018-04-27T19:02:56.961Z,55.74
2018-04-27T19:05:25.299Z,56.05
2018-04-27T19:07:56.787Z,56.20
2018-04-27T19:10:25.035Z,56.02
2018-04-27T19:12:52.639Z,56.53
2018-04-27T19:15:21.055Z,56.99
2018-04-27T19:17:48.643Z,57.14
2018-04-27T19:20:16.791Z,57.59
2018-04-27T19:22:44.374Z,57.53
2018-04-27T19:25:11.971Z,57.79
2018-04-27T19:27:39.748Z,57.28
2018-04-27T19:30:07.372Z,58.12
2018-04-27T19:32:35.016Z,57.93
2018-04-27T19:35:03.394Z,57.86
2018-04-27T19:37:31.033Z,58.45
2018-04-27T19:39:58.650Z,58.32
2018-04-27T19:42:26.662Z,58.19
2018-04-27T19:44:54.240Z,58.32
2018-04-27T19:47:22.363Z,58.40
2018-04-27T19:49:50.579Z,58.60
2018-04-27T19:52:18.150Z,58.32
2018-04-27T19:54:46.466Z,58.39
2018-04-27T19:57:14.026Z,58.91
2018-04-27T19:59:41.703Z,58.79
2018-04-27T20:02:09.358Z,59.03
2018-04-27T20:04:37.592Z,59.13
2018-04-27T20:07:05.695Z,59.03
2018-04-27T20:09:34.193Z,59.01
2018-04-27T20:12:02.840Z,59.10
2018-04-27T20:14:36.834Z,59.12
2018-04-27T20:17:05.101Z,59.29
2018-04-27T20:19:37.226Z,59.93
2018-04-27T20:22:22.603Z,60.09
2018-04-27T20:24:54.803Z,60.19
2018-04-27T20:27:22.415Z,60.14
2018-04-27T20:29:55.114Z,60.65
2018-04-27T20:32:22.824Z,60.91
2018-04-27T20:34:51.110Z,60.97
2018-04-27T20:37:18.743Z,61.07
2018-04-27T20:39:46.358Z,61.21
2018-04-27T20:42:13.971Z,61.10
2018-04-27T20:44:41.542Z,61.31
2018-04-27T20:47:10.119Z,61.15
2018-04-27T20:49:37.727Z,61.32
2018-04-27T20:52:05.286Z,61.53
2018-04-27T20:54:33.791Z,61.21
2018-04-27T20:57:02.259Z,61.34
2018-04-27T20:59:29.851Z,61.39
2018-04-27T21:01:57.460Z,61.11
2018-04-27T21:04:25.892Z,61.57
2018-04-27T21:06:57.873Z,61.84
2018-04-27T21:09:25.854Z,62.07
2018-04-27T21:11:54.124Z,62.10
2018-04-27T21:14:22.446Z,62.41
2018-04-27T21:16:50.041Z,62.75
2018-04-27T21:19:17.601Z,62.64
2018-04-27T21:21:45.597Z,63.00
2018-04-27T21:24:13.160Z,63.84
2018-04-27T21:26:40.874Z,63.38
2018-04-27T21:29:08.711Z,63.88
2018-04-27T21:31:36.809Z,63.82
2018-04-27T21:34:04.395Z,64.71
2018-04-27T21:36:32.249Z,64.23
2018-04-27T21:39:16.871Z,64.60
2018-04-27T21:42:00.095Z,65.34
2018-04-27T21:44:29.960Z,65.18
2018-04-27T21:47:02.315Z,64.70
2018-04-27T21:49:29.915Z,66.02
2018-04-27T21:52:00.309Z,66.37
2018-04-27T21:54:28.710Z,66.68
2018-04-27T21:57:04.899Z,66.90
2018-04-27T22:06:09.754Z,67.54
2018-04-27T22:08:42.080Z,67.48
2018-04-27T22:11:12.113Z,67.73
2018-04-27T22:13:40.138Z,68.16
2018-04-27T22:16:13.301Z,67.90
2018-04-27T22:18:40.911Z,68.20
2018-04-27T22:21:08.526Z,68.10
2018-04-27T22:23:36.892Z,68.11
2018-04-27T22:26:05.377Z,68.31
2018-04-27T22:28:41.705Z,68.58
2018-04-27T22:31:09.425Z,68.21
2018-04-27T22:33:41.837Z,68.15
2018-04-27T22:36:21.715Z,68.21
2018-04-27T22:38:56.699Z,68.58
2018-04-27T22:41:24.291Z,68.57
2018-04-27T22:43:55.070Z,68.60
2018-04-27T22:46:23.308Z,68.67
2018-04-27T22:49:08.076Z,68.71
2018-04-27T22:51:38.587Z,68.67
2018-04-27T22:54:08.646Z,68.82
2018-04-27T22:56:53.977Z,69.07
2018-04-27T22:59:33.267Z,69.06
2018-04-27T23:02:21.648Z,69.28
2018-04-27T23:05:00.440Z,69.21
2018-04-27T23:07:36.462Z,69.81
2018-04-27T23:10:05.815Z,69.91
2018-04-27T23:12:33.383Z,69.37
2018-04-27T23:15:01.601Z,69.90
2018-04-27T23:17:29.445Z,69.90
2018-04-27T23:20:08.821Z,69.76
2018-04-27T23:22:38.370Z,69.95
2018-04-27T23:25:07.942Z,69.97
2018-04-27T23:27:36.342Z,69.90
2018-04-27T23:30:05.850Z,69.69
2018-04-27T23:32:33.420Z,69.73
2018-04-27T23:35:01.511Z,69.12
2018-04-27T23:37:29.955Z,68.99
2018-04-27T23:39:59.178Z,68.98
2018-04-27T23:42:26.768Z,69.22
2018-04-27T23:44:54.347Z,69.25
2018-04-27T23:47:22.636Z,69.71
2018-04-27T23:49:50.220Z,69.93
2018-04-27T23:52:17.813Z,69.94
2018-04-27T23:54:46.087Z,69.62
2018-04-27T23:57:17.343Z,69.82
2018-04-27T23:59:44.910Z,70.12
